sensor_id;sensor_type;location;lat;lon;timestamp;P1;durP1;ratioP1;P2;durP2;ratioP2
74291;SDS011;62687;55.738;37.516;2023-01-04T00:00:30;1.08;;;0.20;;
74291;SDS011;62687;55.738;37.516;2023-01-04T00:03:14;0.22;;;0.05;;
74291;SDS011;62687;55.738;37.516;2023-01-04T00:05:59;0.22;;;0.13;;
74291;SDS011;62687;55.738;37.516;2023-01-04T00:08:44;0.45;;;0.20;;
74291;SDS011;62687;55.738;37.516;2023-01-04T00:11:28;0.30;;;0.10;;
74291;SDS011;62687;55.738;37.516;2023-01-04T00:14:12;0.20;;;0.00;;
74291;SDS011;62687;55.738;37.516;2023-01-04T00:16:57;0.32;;;0.00;;
74291;SDS011;62687;55.738;37.516;2023-01-04T00:19:41;1.73;;;0.10;;
74291;SDS011;62687;55.738;37.516;2023-01-04T00:22:25;0.40;;;0.00;;
74291;SDS011;62687;55.738;37.516;2023-01-04T00:25:09;0.32;;;0.03;;
74291;SDS011;62687;55.738;37.516;2023-01-04T00:27:53;1.20;;;0.15;;
74291;SDS011;62687;55.738;37.516;2023-01-04T00:30:37;0.40;;;0.10;;
74291;SDS011;62687;55.738;37.516;2023-01-04T00:33:21;0.20;;;0.00;;
74291;SDS011;62687;55.738;37.516;2023-01-04T00:36:05;0.63;;;0.10;;
74291;SDS011;62687;55.738;37.516;2023-01-04T00:38:52;0.40;;;0.30;;
74291;SDS011;62687;55.738;37.516;2023-01-04T00:41:52;0.10;;;0.00;;
74291;SDS011;62687;55.738;37.516;2023-01-04T00:44:36;0.13;;;0.00;;
74291;SDS011;62687;55.738;37.516;2023-01-04T00:47:21;0.50;;;0.20;;
74291;SDS011;62687;55.738;37.516;2023-01-04T00:50:05;1.42;;;0.55;;
74291;SDS011;62687;55.738;37.516;2023-01-04T00:52:49;1.60;;;0.80;;
74291;SDS011;62687;55.738;37.516;2023-01-04T00:55:33;3.92;;;1.02;;
74291;SDS011;62687;55.738;37.516;2023-01-04T00:58:17;3.03;;;0.90;;
74291;SDS011;62687;55.738;37.516;2023-01-04T01:01:05;7.20;;;1.50;;
74291;SDS011;62687;55.738;37.516;2023-01-04T01:03:53;5.13;;;1.23;;
74291;SDS011;62687;55.738;37.516;2023-01-04T01:06:39;3.70;;;0.90;;
74291;SDS011;62687;55.738;37.516;2023-01-04T01:09:24;2.05;;;0.73;;
74291;SDS011;62687;55.738;37.516;2023-01-04T01:12:08;2.45;;;1.10;;
74291;SDS011;62687;55.738;37.516;2023-01-04T01:14:52;3.65;;;1.33;;
74291;SDS011;62687;55.738;37.516;2023-01-04T01:17:36;2.45;;;1.17;;
74291;SDS011;62687;55.738;37.516;2023-01-04T01:20:20;3.38;;;1.48;;
74291;SDS011;62687;55.738;37.516;2023-01-04T01:23:05;2.22;;;1.00;;
74291;SDS011;62687;55.738;37.516;2023-01-04T01:25:49;4.05;;;1.25;;
74291;SDS011;62687;55.738;37.516;2023-01-04T01:28:34;4.97;;;1.33;;
74291;SDS011;62687;55.738;37.516;2023-01-04T01:31:20;2.72;;;1.20;;
74291;SDS011;62687;55.738;37.516;2023-01-04T01:34:05;5.20;;;1.33;;
74291;SDS011;62687;55.738;37.516;2023-01-04T01:36:49;6.57;;;1.40;;
74291;SDS011;62687;55.738;37.516;2023-01-04T01:39:33;2.47;;;1.08;;
74291;SDS011;62687;55.738;37.516;2023-01-04T01:42:18;4.22;;;1.40;;
74291;SDS011;62687;55.738;37.516;2023-01-04T01:45:04;2.60;;;1.15;;
74291;SDS011;62687;55.738;37.516;2023-01-04T01:48:15;6.47;;;1.50;;
74291;SDS011;62687;55.738;37.516;2023-01-04T01:51:04;3.97;;;1.73;;
74291;SDS011;62687;55.738;37.516;2023-01-04T01:53:50;2.97;;;1.33;;
74291;SDS011;62687;55.738;37.516;2023-01-04T01:56:44;3.53;;;1.08;;
74291;SDS011;62687;55.738;37.516;2023-01-04T01:59:31;3.15;;;1.42;;
74291;SDS011;62687;55.738;37.516;2023-01-04T02:02:20;3.05;;;1.42;;
74291;SDS011;62687;55.738;37.516;2023-01-04T02:05:05;3.10;;;0.77;;
74291;SDS011;62687;55.738;37.516;2023-01-04T02:07:50;5.30;;;1.23;;
74291;SDS011;62687;55.738;37.516;2023-01-04T02:10:35;3.83;;;1.20;;
74291;SDS011;62687;55.738;37.516;2023-01-04T02:13:21;3.83;;;0.95;;
74291;SDS011;62687;55.738;37.516;2023-01-04T02:31:43;4.60;;;1.20;;
74291;SDS011;62687;55.738;37.516;2023-01-04T02:43:54;3.40;;;1.80;;
74291;SDS011;62687;55.738;37.516;2023-01-04T02:47:07;4.50;;;1.50;;
74291;SDS011;62687;55.738;37.516;2023-01-04T02:49:55;4.13;;;1.67;;
74291;SDS011;62687;55.738;37.516;2023-01-04T02:53:04;4.05;;;1.67;;
74291;SDS011;62687;55.738;37.516;2023-01-04T03:09:04;4.40;;;1.45;;
74291;SDS011;62687;55.738;37.516;2023-01-04T03:12:01;4.78;;;2.00;;
74291;SDS011;62687;55.738;37.516;2023-01-04T03:18:26;3.83;;;1.58;;
74291;SDS011;62687;55.738;37.516;2023-01-04T03:21:12;6.10;;;1.38;;
74291;SDS011;62687;55.738;37.516;2023-01-04T03:23:58;4.38;;;1.30;;
74291;SDS011;62687;55.738;37.516;2023-01-04T03:27:04;3.97;;;1.75;;
74291;SDS011;62687;55.738;37.516;2023-01-04T03:30:10;3.17;;;1.40;;
74291;SDS011;62687;55.738;37.516;2023-01-04T03:33:15;3.53;;;1.42;;
74291;SDS011;62687;55.738;37.516;2023-01-04T03:39:38;6.07;;;1.20;;
74291;SDS011;62687;55.738;37.516;2023-01-04T03:49:24;5.85;;;1.23;;
74291;SDS011;62687;55.738;37.516;2023-01-04T03:52:13;3.35;;;1.30;;
74291;SDS011;62687;55.738;37.516;2023-01-04T03:55:00;22.25;;;2.10;;
74291;SDS011;62687;55.738;37.516;2023-01-04T03:57:46;2.17;;;1.17;;
74291;SDS011;62687;55.738;37.516;2023-01-04T04:00:31;7.40;;;1.65;;
74291;SDS011;62687;55.738;37.516;2023-01-04T04:03:16;3.55;;;1.17;;
74291;SDS011;62687;55.738;37.516;2023-01-04T04:06:00;2.78;;;1.40;;
74291;SDS011;62687;55.738;37.516;2023-01-04T04:09:03;3.53;;;1.15;;
74291;SDS011;62687;55.738;37.516;2023-01-04T04:11:47;4.18;;;1.20;;
74291;SDS011;62687;55.738;37.516;2023-01-04T04:14:31;5.78;;;1.23;;
74291;SDS011;62687;55.738;37.516;2023-01-04T04:17:16;3.85;;;1.45;;
74291;SDS011;62687;55.738;37.516;2023-01-04T04:20:00;3.75;;;1.60;;
74291;SDS011;62687;55.738;37.516;2023-01-04T04:22:45;2.30;;;1.10;;
74291;SDS011;62687;55.738;37.516;2023-01-04T04:25:29;2.78;;;0.88;;
74291;SDS011;62687;55.738;37.516;2023-01-04T04:28:13;4.07;;;1.30;;
74291;SDS011;62687;55.738;37.516;2023-01-04T04:30:56;3.15;;;1.15;;
74291;SDS011;62687;55.738;37.516;2023-01-04T04:33:41;5.40;;;1.10;;
74291;SDS011;62687;55.738;37.516;2023-01-04T04:36:25;1.83;;;0.80;;
74291;SDS011;62687;55.738;37.516;2023-01-04T04:39:09;3.60;;;1.30;;
74291;SDS011;62687;55.738;37.516;2023-01-04T04:41:54;4.50;;;1.00;;
74291;SDS011;62687;55.738;37.516;2023-01-04T04:44:39;3.35;;;0.93;;
74291;SDS011;62687;55.738;37.516;2023-01-04T04:47:22;3.08;;;1.08;;
74291;SDS011;62687;55.738;37.516;2023-01-04T04:50:07;1.30;;;0.60;;
74291;SDS011;62687;55.738;37.516;2023-01-04T04:52:51;1.50;;;0.65;;
74291;SDS011;62687;55.738;37.516;2023-01-04T04:55:35;1.73;;;0.63;;
74291;SDS011;62687;55.738;37.516;2023-01-04T04:58:19;2.85;;;1.00;;
74291;SDS011;62687;55.738;37.516;2023-01-04T05:01:03;1.98;;;0.73;;
74291;SDS011;62687;55.738;37.516;2023-01-04T05:03:48;0.80;;;0.20;;
74291;SDS011;62687;55.738;37.516;2023-01-04T05:06:32;1.77;;;0.82;;
74291;SDS011;62687;55.738;37.516;2023-01-04T05:09:17;2.90;;;0.82;;
74291;SDS011;62687;55.738;37.516;2023-01-04T05:12:01;1.98;;;0.60;;
74291;SDS011;62687;55.738;37.516;2023-01-04T05:15:04;2.08;;;0.60;;
74291;SDS011;62687;55.738;37.516;2023-01-04T05:17:48;3.63;;;1.20;;
74291;SDS011;62687;55.738;37.516;2023-01-04T05:20:32;2.95;;;0.90;;
74291;SDS011;62687;55.738;37.516;2023-01-04T05:23:18;2.65;;;0.95;;
74291;SDS011;62687;55.738;37.516;2023-01-04T05:26:04;5.15;;;0.90;;
74291;SDS011;62687;55.738;37.516;2023-01-04T05:28:48;1.77;;;0.82;;
74291;SDS011;62687;55.738;37.516;2023-01-04T05:31:32;1.55;;;0.60;;
74291;SDS011;62687;55.738;37.516;2023-01-04T05:34:16;5.07;;;1.10;;
74291;SDS011;62687;55.738;37.516;2023-01-04T05:37:00;2.70;;;0.80;;
74291;SDS011;62687;55.738;37.516;2023-01-04T05:39:44;4.43;;;0.95;;
74291;SDS011;62687;55.738;37.516;2023-01-04T05:42:28;4.30;;;0.98;;
74291;SDS011;62687;55.738;37.516;2023-01-04T05:45:13;3.75;;;1.13;;
74291;SDS011;62687;55.738;37.516;2023-01-04T05:47:57;3.38;;;0.70;;
74291;SDS011;62687;55.738;37.516;2023-01-04T05:50:41;1.55;;;0.50;;
74291;SDS011;62687;55.738;37.516;2023-01-04T05:53:26;3.83;;;1.10;;
74291;SDS011;62687;55.738;37.516;2023-01-04T05:56:10;3.38;;;1.23;;
74291;SDS011;62687;55.738;37.516;2023-01-04T05:58:54;6.05;;;1.00;;
74291;SDS011;62687;55.738;37.516;2023-01-04T06:01:38;3.15;;;1.10;;
74291;SDS011;62687;55.738;37.516;2023-01-04T06:04:22;2.22;;;0.73;;
74291;SDS011;62687;55.738;37.516;2023-01-04T06:07:06;2.40;;;1.02;;
74291;SDS011;62687;55.738;37.516;2023-01-04T06:09:50;4.80;;;0.90;;
74291;SDS011;62687;55.738;37.516;2023-01-04T06:12:34;5.13;;;1.25;;
74291;SDS011;62687;55.738;37.516;2023-01-04T06:15:18;5.50;;;1.02;;
74291;SDS011;62687;55.738;37.516;2023-01-04T06:18:02;2.75;;;0.90;;
74291;SDS011;62687;55.738;37.516;2023-01-04T06:20:49;1.85;;;0.75;;
74291;SDS011;62687;55.738;37.516;2023-01-04T06:23:34;2.67;;;0.90;;
74291;SDS011;62687;55.738;37.516;2023-01-04T06:26:18;5.47;;;0.75;;
74291;SDS011;62687;55.738;37.516;2023-01-04T06:29:03;3.40;;;1.17;;
74291;SDS011;62687;55.738;37.516;2023-01-04T06:31:47;5.35;;;0.90;;
74291;SDS011;62687;55.738;37.516;2023-01-04T06:34:31;2.75;;;1.00;;
74291;SDS011;62687;55.738;37.516;2023-01-04T06:37:15;5.70;;;1.00;;
74291;SDS011;62687;55.738;37.516;2023-01-04T06:39:59;1.20;;;0.50;;
74291;SDS011;62687;55.738;37.516;2023-01-04T06:42:43;0.60;;;0.30;;
74291;SDS011;62687;55.738;37.516;2023-01-04T06:45:27;2.25;;;0.50;;
74291;SDS011;62687;55.738;37.516;2023-01-04T06:48:11;2.00;;;0.70;;
74291;SDS011;62687;55.738;37.516;2023-01-04T06:50:55;3.15;;;0.60;;
74291;SDS011;62687;55.738;37.516;2023-01-04T06:53:39;0.88;;;0.35;;
74291;SDS011;62687;55.738;37.516;2023-01-04T06:56:24;2.25;;;0.80;;
74291;SDS011;62687;55.738;37.516;2023-01-04T06:59:08;2.28;;;0.90;;
74291;SDS011;62687;55.738;37.516;2023-01-04T07:01:52;2.95;;;0.80;;
74291;SDS011;62687;55.738;37.516;2023-01-04T07:04:36;2.05;;;0.73;;
74291;SDS011;62687;55.738;37.516;2023-01-04T07:07:20;2.55;;;0.90;;
74291;SDS011;62687;55.738;37.516;2023-01-04T07:10:04;5.43;;;1.02;;
74291;SDS011;62687;55.738;37.516;2023-01-04T07:12:49;2.70;;;1.10;;
74291;SDS011;62687;55.738;37.516;2023-01-04T07:15:33;2.40;;;0.60;;
74291;SDS011;62687;55.738;37.516;2023-01-04T07:18:18;1.48;;;0.60;;
74291;SDS011;62687;55.738;37.516;2023-01-04T07:21:03;2.05;;;0.75;;
74291;SDS011;62687;55.738;37.516;2023-01-04T07:23:47;1.70;;;0.55;;
74291;SDS011;62687;55.738;37.516;2023-01-04T07:26:32;3.15;;;0.90;;
74291;SDS011;62687;55.738;37.516;2023-01-04T07:29:17;5.53;;;0.90;;
74291;SDS011;62687;55.738;37.516;2023-01-04T07:32:01;11.48;;;1.00;;
74291;SDS011;62687;55.738;37.516;2023-01-04T07:34:46;2.58;;;0.93;;
74291;SDS011;62687;55.738;37.516;2023-01-04T07:37:30;1.70;;;0.80;;
74291;SDS011;62687;55.738;37.516;2023-01-04T07:40:13;2.95;;;1.23;;
74291;SDS011;62687;55.738;37.516;2023-01-04T07:42:58;2.22;;;0.80;;
74291;SDS011;62687;55.738;37.516;2023-01-04T07:45:42;2.17;;;0.90;;
74291;SDS011;62687;55.738;37.516;2023-01-04T07:48:27;3.20;;;0.98;;
74291;SDS011;62687;55.738;37.516;2023-01-04T07:51:11;2.83;;;0.93;;
74291;SDS011;62687;55.738;37.516;2023-01-04T07:53:56;2.83;;;1.20;;
74291;SDS011;62687;55.738;37.516;2023-01-04T07:56:40;3.03;;;1.30;;
74291;SDS011;62687;55.738;37.516;2023-01-04T07:59:25;3.80;;;1.65;;
74291;SDS011;62687;55.738;37.516;2023-01-04T08:02:09;4.22;;;1.70;;
74291;SDS011;62687;55.738;37.516;2023-01-04T08:04:55;5.35;;;1.83;;
74291;SDS011;62687;55.738;37.516;2023-01-04T08:07:39;7.55;;;1.58;;
74291;SDS011;62687;55.738;37.516;2023-01-04T08:10:23;4.78;;;1.75;;
74291;SDS011;62687;55.738;37.516;2023-01-04T08:13:07;3.00;;;1.40;;
74291;SDS011;62687;55.738;37.516;2023-01-04T08:15:52;4.50;;;1.75;;
74291;SDS011;62687;55.738;37.516;2023-01-04T08:18:36;3.95;;;1.48;;
74291;SDS011;62687;55.738;37.516;2023-01-04T08:21:20;4.72;;;1.30;;
74291;SDS011;62687;55.738;37.516;2023-01-04T08:24:05;3.85;;;1.95;;
74291;SDS011;62687;55.738;37.516;2023-01-04T08:26:50;3.20;;;1.20;;
74291;SDS011;62687;55.738;37.516;2023-01-04T08:29:33;3.33;;;1.55;;
74291;SDS011;62687;55.738;37.516;2023-01-04T08:32:17;6.00;;;2.53;;
74291;SDS011;62687;55.738;37.516;2023-01-04T08:35:01;4.43;;;2.22;;
74291;SDS011;62687;55.738;37.516;2023-01-04T08:37:46;6.72;;;2.83;;
74291;SDS011;62687;55.738;37.516;2023-01-04T08:40:30;9.32;;;2.80;;
74291;SDS011;62687;55.738;37.516;2023-01-04T08:43:14;8.98;;;3.15;;
74291;SDS011;62687;55.738;37.516;2023-01-04T08:45:58;7.22;;;3.22;;
74291;SDS011;62687;55.738;37.516;2023-01-04T08:48:42;6.63;;;3.47;;
74291;SDS011;62687;55.738;37.516;2023-01-04T08:51:26;7.50;;;3.55;;
74291;SDS011;62687;55.738;37.516;2023-01-04T08:54:10;2.15;;;0.95;;
74291;SDS011;62687;55.738;37.516;2023-01-04T08:56:54;5.85;;;2.85;;
74291;SDS011;62687;55.738;37.516;2023-01-04T08:59:38;5.20;;;2.40;;
74291;SDS011;62687;55.738;37.516;2023-01-04T09:02:24;2.78;;;1.33;;
74291;SDS011;62687;55.738;37.516;2023-01-04T09:05:13;4.07;;;2.15;;
74291;SDS011;62687;55.738;37.516;2023-01-04T09:08:00;5.82;;;2.70;;
74291;SDS011;62687;55.738;37.516;2023-01-04T09:10:45;5.70;;;2.28;;
74291;SDS011;62687;55.738;37.516;2023-01-04T09:13:29;7.70;;;2.97;;
74291;SDS011;62687;55.738;37.516;2023-01-04T09:16:14;5.85;;;2.85;;
74291;SDS011;62687;55.738;37.516;2023-01-04T09:19:00;8.43;;;3.85;;
74291;SDS011;62687;55.738;37.516;2023-01-04T09:21:45;7.95;;;3.55;;
74291;SDS011;62687;55.738;37.516;2023-01-04T09:24:31;7.72;;;3.20;;
74291;SDS011;62687;55.738;37.516;2023-01-04T09:27:16;5.00;;;2.38;;
74291;SDS011;62687;55.738;37.516;2023-01-04T09:30:00;7.07;;;3.40;;
74291;SDS011;62687;55.738;37.516;2023-01-04T09:32:44;5.28;;;2.72;;
74291;SDS011;62687;55.738;37.516;2023-01-04T09:35:28;5.82;;;2.47;;
74291;SDS011;62687;55.738;37.516;2023-01-04T09:38:12;7.03;;;2.33;;
74291;SDS011;62687;55.738;37.516;2023-01-04T09:46:56;5.05;;;2.45;;
74291;SDS011;62687;55.738;37.516;2023-01-04T09:49:51;6.78;;;2.90;;
74291;SDS011;62687;55.738;37.516;2023-01-04T09:55:35;5.50;;;2.67;;
74291;SDS011;62687;55.738;37.516;2023-01-04T10:01:43;5.13;;;2.50;;
74291;SDS011;62687;55.738;37.516;2023-01-04T10:04:47;6.43;;;2.60;;
74291;SDS011;62687;55.738;37.516;2023-01-04T10:07:33;5.32;;;2.72;;
74291;SDS011;62687;55.738;37.516;2023-01-04T10:10:20;5.78;;;2.38;;
74291;SDS011;62687;55.738;37.516;2023-01-04T10:23:06;6.55;;;3.20;;
74291;SDS011;62687;55.738;37.516;2023-01-04T10:26:12;8.38;;;3.53;;
74291;SDS011;62687;55.738;37.516;2023-01-04T10:29:18;6.18;;;3.10;;
74291;SDS011;62687;55.738;37.516;2023-01-04T10:38:07;6.07;;;2.95;;
74291;SDS011;62687;55.738;37.516;2023-01-04T10:40:56;6.57;;;3.08;;
74291;SDS011;62687;55.738;37.516;2023-01-04T10:43:46;6.85;;;2.40;;
74291;SDS011;62687;55.738;37.516;2023-01-04T10:46:43;6.70;;;3.00;;
74291;SDS011;62687;55.738;37.516;2023-01-04T10:49:49;6.82;;;2.88;;
74291;SDS011;62687;55.738;37.516;2023-01-04T10:52:49;6.63;;;2.72;;
74291;SDS011;62687;55.738;37.516;2023-01-04T10:55:42;5.15;;;2.28;;
74291;SDS011;62687;55.738;37.516;2023-01-04T10:58:30;5.32;;;2.30;;
74291;SDS011;62687;55.738;37.516;2023-01-04T11:01:24;7.45;;;2.15;;
74291;SDS011;62687;55.738;37.516;2023-01-04T11:07:25;2.67;;;1.23;;
74291;SDS011;62687;55.738;37.516;2023-01-04T11:10:16;4.82;;;1.65;;
74291;SDS011;62687;55.738;37.516;2023-01-04T11:13:06;3.63;;;1.52;;
74291;SDS011;62687;55.738;37.516;2023-01-04T11:15:51;1.88;;;0.88;;
74291;SDS011;62687;55.738;37.516;2023-01-04T11:18:36;4.30;;;1.50;;
74291;SDS011;62687;55.738;37.516;2023-01-04T11:21:24;2.60;;;1.08;;
74291;SDS011;62687;55.738;37.516;2023-01-04T11:24:11;1.80;;;1.00;;
74291;SDS011;62687;55.738;37.516;2023-01-04T11:27:00;3.17;;;0.80;;
74291;SDS011;62687;55.738;37.516;2023-01-04T11:29:53;2.80;;;0.82;;
74291;SDS011;62687;55.738;37.516;2023-01-04T11:33:04;4.03;;;1.70;;
74291;SDS011;62687;55.738;37.516;2023-01-04T11:35:56;3.42;;;1.15;;
74291;SDS011;62687;55.738;37.516;2023-01-04T11:38:43;2.90;;;1.40;;
74291;SDS011;62687;55.738;37.516;2023-01-04T11:41:37;5.35;;;1.55;;
74291;SDS011;62687;55.738;37.516;2023-01-04T11:44:22;4.65;;;1.13;;
74291;SDS011;62687;55.738;37.516;2023-01-04T11:47:17;3.05;;;1.20;;
74291;SDS011;62687;55.738;37.516;2023-01-04T11:50:03;1.77;;;0.57;;
74291;SDS011;62687;55.738;37.516;2023-01-04T11:52:47;1.70;;;0.70;;
74291;SDS011;62687;55.738;37.516;2023-01-04T11:55:31;1.80;;;0.50;;
74291;SDS011;62687;55.738;37.516;2023-01-04T11:58:16;15.25;;;4.45;;
74291;SDS011;62687;55.738;37.516;2023-01-04T12:01:02;5.05;;;1.77;;
74291;SDS011;62687;55.738;37.516;2023-01-04T12:03:46;2.28;;;0.73;;
74291;SDS011;62687;55.738;37.516;2023-01-04T12:06:32;3.45;;;1.30;;
74291;SDS011;62687;55.738;37.516;2023-01-04T12:09:20;2.17;;;0.68;;
74291;SDS011;62687;55.738;37.516;2023-01-04T12:12:05;2.60;;;0.77;;
74291;SDS011;62687;55.738;37.516;2023-01-04T12:14:49;3.20;;;1.00;;
74291;SDS011;62687;55.738;37.516;2023-01-04T12:20:37;2.67;;;1.02;;
74291;SDS011;62687;55.738;37.516;2023-01-04T12:23:21;2.65;;;0.90;;
74291;SDS011;62687;55.738;37.516;2023-01-04T12:26:06;3.35;;;1.27;;
74291;SDS011;62687;55.738;37.516;2023-01-04T12:34:57;2.00;;;0.80;;
74291;SDS011;62687;55.738;37.516;2023-01-04T12:43:28;18.35;;;4.70;;
74291;SDS011;62687;55.738;37.516;2023-01-04T12:52:56;1.77;;;0.75;;
74291;SDS011;62687;55.738;37.516;2023-01-04T13:01:20;3.28;;;1.20;;
74291;SDS011;62687;55.738;37.516;2023-01-04T13:04:25;5.50;;;1.63;;
74291;SDS011;62687;55.738;37.516;2023-01-04T13:07:17;1.27;;;0.57;;
74291;SDS011;62687;55.738;37.516;2023-01-04T13:16:26;1.30;;;0.50;;
74291;SDS011;62687;55.738;37.516;2023-01-04T13:19:15;1.10;;;0.30;;
74291;SDS011;62687;55.738;37.516;2023-01-04T13:22:07;1.45;;;0.43;;
74291;SDS011;62687;55.738;37.516;2023-01-04T13:24:58;0.55;;;0.13;;
74291;SDS011;62687;55.738;37.516;2023-01-04T13:27:58;0.77;;;0.40;;
74291;SDS011;62687;55.738;37.516;2023-01-04T13:30:44;1.75;;;0.60;;
74291;SDS011;62687;55.738;37.516;2023-01-04T13:33:29;2.10;;;0.60;;
74291;SDS011;62687;55.738;37.516;2023-01-04T13:36:15;1.95;;;0.40;;
74291;SDS011;62687;55.738;37.516;2023-01-04T13:38:59;1.90;;;0.73;;
74291;SDS011;62687;55.738;37.516;2023-01-04T13:41:43;1.77;;;0.70;;
74291;SDS011;62687;55.738;37.516;2023-01-04T13:47:41;0.93;;;0.30;;
74291;SDS011;62687;55.738;37.516;2023-01-04T13:53:23;2.38;;;0.68;;
74291;SDS011;62687;55.738;37.516;2023-01-04T13:56:19;2.20;;;0.73;;
74291;SDS011;62687;55.738;37.516;2023-01-04T13:59:05;1.80;;;0.50;;
74291;SDS011;62687;55.738;37.516;2023-01-04T14:01:51;3.40;;;0.85;;
74291;SDS011;62687;55.738;37.516;2023-01-04T14:04:35;1.45;;;0.40;;
74291;SDS011;62687;55.738;37.516;2023-01-04T14:07:20;3.60;;;1.00;;
74291;SDS011;62687;55.738;37.516;2023-01-04T14:10:12;4.45;;;0.70;;
74291;SDS011;62687;55.738;37.516;2023-01-04T14:13:01;1.83;;;0.57;;
74291;SDS011;62687;55.738;37.516;2023-01-04T14:15:46;1.75;;;0.45;;
74291;SDS011;62687;55.738;37.516;2023-01-04T14:18:48;2.58;;;0.80;;
74291;SDS011;62687;55.738;37.516;2023-01-04T14:21:33;2.97;;;1.10;;
74291;SDS011;62687;55.738;37.516;2023-01-04T14:24:32;3.30;;;1.38;;
74291;SDS011;62687;55.738;37.516;2023-01-04T14:33:47;1.27;;;0.32;;
74291;SDS011;62687;55.738;37.516;2023-01-04T14:36:28;4.88;;;1.50;;
74291;SDS011;62687;55.738;37.516;2023-01-04T14:39:18;4.50;;;1.27;;
74291;SDS011;62687;55.738;37.516;2023-01-04T14:45:11;2.85;;;1.17;;
74291;SDS011;62687;55.738;37.516;2023-01-04T14:47:56;2.53;;;1.02;;
74291;SDS011;62687;55.738;37.516;2023-01-04T14:50:40;1.50;;;0.50;;
74291;SDS011;62687;55.738;37.516;2023-01-04T14:53:24;5.47;;;1.40;;
74291;SDS011;62687;55.738;37.516;2023-01-04T14:56:12;2.75;;;0.95;;
74291;SDS011;62687;55.738;37.516;2023-01-04T14:58:58;5.18;;;1.38;;
74291;SDS011;62687;55.738;37.516;2023-01-04T15:01:42;5.75;;;0.95;;
74291;SDS011;62687;55.738;37.516;2023-01-04T15:04:26;1.58;;;0.65;;
74291;SDS011;62687;55.738;37.516;2023-01-04T15:07:26;3.67;;;1.50;;
74291;SDS011;62687;55.738;37.516;2023-01-04T15:10:21;4.75;;;1.75;;
74291;SDS011;62687;55.738;37.516;2023-01-04T15:13:05;2.38;;;1.00;;
74291;SDS011;62687;55.738;37.516;2023-01-04T15:15:50;3.28;;;1.02;;
74291;SDS011;62687;55.738;37.516;2023-01-04T15:18:34;6.30;;;1.65;;
74291;SDS011;62687;55.738;37.516;2023-01-04T15:21:18;2.22;;;0.75;;
74291;SDS011;62687;55.738;37.516;2023-01-04T15:24:02;2.75;;;0.50;;
74291;SDS011;62687;55.738;37.516;2023-01-04T15:26:47;4.95;;;1.60;;
74291;SDS011;62687;55.738;37.516;2023-01-04T15:29:31;4.57;;;1.63;;
74291;SDS011;62687;55.738;37.516;2023-01-04T15:32:17;2.33;;;1.00;;
74291;SDS011;62687;55.738;37.516;2023-01-04T15:35:01;4.13;;;1.30;;
74291;SDS011;62687;55.738;37.516;2023-01-04T15:37:45;4.10;;;1.27;;
74291;SDS011;62687;55.738;37.516;2023-01-04T15:40:29;1.08;;;0.43;;
74291;SDS011;62687;55.738;37.516;2023-01-04T15:43:13;3.60;;;1.17;;
74291;SDS011;62687;55.738;37.516;2023-01-04T15:46:01;3.67;;;1.50;;
74291;SDS011;62687;55.738;37.516;2023-01-04T15:48:46;4.30;;;1.60;;
74291;SDS011;62687;55.738;37.516;2023-01-04T15:51:30;4.53;;;1.60;;
74291;SDS011;62687;55.738;37.516;2023-01-04T15:54:14;2.35;;;0.95;;
74291;SDS011;62687;55.738;37.516;2023-01-04T15:56:59;3.33;;;1.33;;
74291;SDS011;62687;55.738;37.516;2023-01-04T15:59:45;6.25;;;2.30;;
74291;SDS011;62687;55.738;37.516;2023-01-04T16:02:30;4.75;;;1.80;;
74291;SDS011;62687;55.738;37.516;2023-01-04T16:05:15;7.93;;;2.17;;
74291;SDS011;62687;55.738;37.516;2023-01-04T16:07:59;7.05;;;2.40;;
74291;SDS011;62687;55.738;37.516;2023-01-04T16:10:44;6.78;;;2.50;;
74291;SDS011;62687;55.738;37.516;2023-01-04T16:13:28;10.95;;;2.35;;
74291;SDS011;62687;55.738;37.516;2023-01-04T16:16:13;4.22;;;2.05;;
74291;SDS011;62687;55.738;37.516;2023-01-04T16:18:57;5.85;;;2.28;;
74291;SDS011;62687;55.738;37.516;2023-01-04T16:21:41;7.07;;;2.22;;
74291;SDS011;62687;55.738;37.516;2023-01-04T16:24:26;4.65;;;2.08;;
74291;SDS011;62687;55.738;37.516;2023-01-04T16:27:49;8.55;;;3.17;;
74291;SDS011;62687;55.738;37.516;2023-01-04T16:31:02;5.85;;;2.70;;
74291;SDS011;62687;55.738;37.516;2023-01-04T16:37:48;6.15;;;2.40;;
74291;SDS011;62687;55.738;37.516;2023-01-04T16:41:28;8.13;;;3.00;;
74291;SDS011;62687;55.738;37.516;2023-01-04T16:44:30;6.10;;;2.63;;
74291;SDS011;62687;55.738;37.516;2023-01-04T16:47:59;8.65;;;2.90;;
74291;SDS011;62687;55.738;37.516;2023-01-04T16:51:04;7.38;;;2.25;;
74291;SDS011;62687;55.738;37.516;2023-01-04T16:53:56;5.47;;;2.55;;
74291;SDS011;62687;55.738;37.516;2023-01-04T16:56:51;8.18;;;2.83;;
74291;SDS011;62687;55.738;37.516;2023-01-04T16:59:50;8.25;;;2.50;;
74291;SDS011;62687;55.738;37.516;2023-01-04T17:02:48;7.07;;;3.00;;
74291;SDS011;62687;55.738;37.516;2023-01-04T17:05:40;7.65;;;3.10;;
74291;SDS011;62687;55.738;37.516;2023-01-04T17:08:34;4.50;;;2.05;;
74291;SDS011;62687;55.738;37.516;2023-01-04T17:11:29;7.28;;;2.72;;
74291;SDS011;62687;55.738;37.516;2023-01-04T17:14:29;9.65;;;3.10;;
74291;SDS011;62687;55.738;37.516;2023-01-04T17:17:37;8.55;;;3.22;;
74291;SDS011;62687;55.738;37.516;2023-01-04T17:21:00;9.65;;;2.72;;
74291;SDS011;62687;55.738;37.516;2023-01-04T17:24:13;8.20;;;2.28;;
74291;SDS011;62687;55.738;37.516;2023-01-04T17:27:09;8.20;;;3.40;;
74291;SDS011;62687;55.738;37.516;2023-01-04T17:29:53;5.80;;;2.28;;
74291;SDS011;62687;55.738;37.516;2023-01-04T17:32:37;7.57;;;2.92;;
74291;SDS011;62687;55.738;37.516;2023-01-04T17:35:21;6.78;;;3.40;;
74291;SDS011;62687;55.738;37.516;2023-01-04T17:38:05;8.98;;;2.60;;
74291;SDS011;62687;55.738;37.516;2023-01-04T17:40:50;8.15;;;2.38;;
74291;SDS011;62687;55.738;37.516;2023-01-04T17:43:34;6.57;;;2.95;;
74291;SDS011;62687;55.738;37.516;2023-01-04T17:46:20;4.38;;;2.13;;
74291;SDS011;62687;55.738;37.516;2023-01-04T17:49:07;5.75;;;2.20;;
74291;SDS011;62687;55.738;37.516;2023-01-04T17:51:53;8.35;;;2.95;;
74291;SDS011;62687;55.738;37.516;2023-01-04T17:54:38;7.05;;;2.67;;
74291;SDS011;62687;55.738;37.516;2023-01-04T17:57:22;3.03;;;1.38;;
74291;SDS011;62687;55.738;37.516;2023-01-04T18:00:07;6.00;;;2.30;;
74291;SDS011;62687;55.738;37.516;2023-01-04T18:02:51;10.57;;;3.47;;
74291;SDS011;62687;55.738;37.516;2023-01-04T18:05:35;4.72;;;1.50;;
74291;SDS011;62687;55.738;37.516;2023-01-04T18:08:20;7.65;;;2.80;;
74291;SDS011;62687;55.738;37.516;2023-01-04T18:11:04;5.78;;;2.30;;
74291;SDS011;62687;55.738;37.516;2023-01-04T18:13:48;4.07;;;2.05;;
74291;SDS011;62687;55.738;37.516;2023-01-04T18:16:33;5.15;;;2.00;;
74291;SDS011;62687;55.738;37.516;2023-01-04T18:19:37;7.50;;;2.42;;
74291;SDS011;62687;55.738;37.516;2023-01-04T18:22:22;7.93;;;2.70;;
74291;SDS011;62687;55.738;37.516;2023-01-04T18:25:06;4.82;;;1.98;;
74291;SDS011;62687;55.738;37.516;2023-01-04T18:27:50;9.85;;;2.20;;
74291;SDS011;62687;55.738;37.516;2023-01-04T18:30:35;8.30;;;2.80;;
74291;SDS011;62687;55.738;37.516;2023-01-04T18:33:19;9.80;;;2.92;;
74291;SDS011;62687;55.738;37.516;2023-01-04T18:36:04;6.95;;;2.63;;
74291;SDS011;62687;55.738;37.516;2023-01-04T18:38:49;8.27;;;3.20;;
74291;SDS011;62687;55.738;37.516;2023-01-04T18:47:04;16.30;;;2.72;;
74291;SDS011;62687;55.738;37.516;2023-01-04T18:49:48;9.25;;;2.75;;
74291;SDS011;62687;55.738;37.516;2023-01-04T18:52:33;3.63;;;1.08;;
74291;SDS011;62687;55.738;37.516;2023-01-04T18:55:18;5.10;;;2.10;;